createdAt,value
2023-04-16T00:00:36.834Z,100.00
2023-04-16T00:03:04.389Z,100.00
2023-04-16T00:05:32.322Z,100.00
2023-04-16T00:07:59.067Z,100.00
2023-04-16T00:10:26.533Z,100.00
2023-04-16T00:12:53.504Z,100.00
2023-04-16T00:15:20.735Z,100.00
2023-04-16T00:17:48.301Z,100.00
2023-04-16T00:20:15.983Z,100.00
2023-04-16T00:22:43.529Z,100.00
2023-04-16T00:25:13.725Z,100.00
2023-04-16T00:27:41.309Z,100.00
2023-04-16T00:30:08.981Z,100.00
2023-04-16T00:32:37.347Z,100.00
2023-04-16T00:35:04.965Z,100.00
2023-04-16T00:37:33.941Z,100.00
2023-04-16T00:40:01.545Z,100.00
2023-04-16T00:42:28.643Z,100.00
2023-04-16T00:44:55.976Z,100.00
2023-04-16T00:47:26.093Z,100.00
2023-04-16T00:49:53.455Z,100.00
2023-04-16T00:52:21.670Z,100.00
2023-04-16T00:54:48.981Z,100.00
2023-04-16T00:57:16.811Z,100.00
2023-04-16T00:59:44.340Z,100.00
2023-04-16T01:02:12.896Z,100.00
2023-04-16T01:04:40.435Z,100.00
2023-04-16T01:07:07.829Z,100.00
2023-04-16T01:09:34.836Z,100.00
2023-04-16T01:12:03.583Z,100.00
2023-04-16T01:14:36.589Z,100.00
2023-04-16T01:17:04.422Z,100.00
2023-04-16T01:19:32.424Z,100.00
2023-04-16T01:21:59.534Z,100.00
2023-04-16T01:24:26.787Z,100.00
2023-04-16T01:26:54.130Z,100.00
2023-04-16T01:29:21.222Z,100.00
2023-04-16T01:31:50.340Z,100.00
2023-04-16T01:34:37.919Z,100.00
2023-04-16T01:37:05.610Z,100.00
2023-04-16T01:39:32.646Z,100.00
2023-04-16T01:41:59.858Z,100.00
2023-04-16T01:44:28.177Z,100.00
2023-04-16T01:46:55.606Z,100.00
2023-04-16T01:49:23.939Z,100.00
2023-04-16T01:51:51.486Z,100.00
2023-04-16T01:54:18.409Z,100.00
2023-04-16T01:56:45.526Z,100.00
2023-04-16T01:59:12.503Z,100.00
2023-04-16T02:01:44.994Z,100.00
2023-04-16T02:04:12.801Z,100.00
2023-04-16T02:06:40.421Z,100.00
2023-04-16T02:09:07.826Z,100.00
2023-04-16T02:11:36.010Z,100.00
2023-04-16T02:14:03.809Z,100.00
2023-04-16T02:16:31.321Z,100.00
2023-04-16T02:19:18.666Z,100.00
2023-04-16T02:21:46.589Z,100.00
2023-04-16T02:24:14.323Z,100.00
2023-04-16T02:26:42.949Z,100.00
2023-04-16T02:29:15.104Z,100.00
2023-04-16T02:31:46.962Z,100.00
2023-04-16T02:34:15.012Z,100.00
2023-04-16T02:36:42.363Z,100.00
2023-04-16T02:39:10.240Z,100.00
2023-04-16T02:41:39.367Z,100.00
2023-04-16T02:44:09.801Z,100.00
2023-04-16T02:46:37.080Z,100.00
2023-04-16T02:49:04.057Z,100.00
2023-04-16T02:51:33.537Z,100.00
2023-04-16T02:54:01.134Z,100.00
2023-04-16T02:56:28.576Z,100.00
2023-04-16T02:58:56.202Z,100.00
2023-04-16T03:01:24.824Z,100.00
2023-04-16T03:03:56.543Z,100.00
2023-04-16T03:06:27.537Z,100.00
2023-04-16T03:08:56.597Z,100.00
2023-04-16T03:11:23.964Z,100.00
2023-04-16T03:13:51.176Z,100.00
2023-04-16T03:16:19.505Z,100.00
2023-04-16T03:18:49.426Z,100.00
2023-04-16T03:21:18.584Z,100.00
2023-04-16T03:23:49.223Z,100.00
2023-04-16T03:26:18.963Z,100.00
2023-04-16T03:28:49.133Z,100.00
2023-04-16T03:31:18.787Z,100.00
2023-04-16T03:33:49.612Z,100.00
2023-04-16T03:36:20.411Z,100.00
2023-04-16T03:38:49.340Z,100.00
2023-04-16T03:41:18.479Z,100.00
2023-04-16T03:43:47.144Z,100.00
2023-04-16T03:46:14.979Z,100.00
2023-04-16T03:48:42.745Z,100.00
2023-04-16T03:51:09.942Z,100.00
2023-04-16T03:53:37.305Z,100.00
2023-04-16T03:56:06.887Z,100.00
2023-04-16T03:58:35.623Z,100.00
2023-04-16T04:01:03.655Z,100.00
2023-04-16T04:03:32.490Z,100.00
2023-04-16T04:06:03.786Z,100.00
2023-04-16T04:08:33.412Z,100.00
2023-04-16T04:11:05.485Z,100.00
2023-04-16T04:13:35.268Z,100.00
2023-04-16T04:16:05.539Z,100.00
2023-04-16T04:18:34.421Z,100.00
2023-04-16T04:21:09.907Z,100.00
2023-04-16T04:23:41.224Z,100.00
2023-04-16T04:26:09.994Z,100.00
2023-04-16T04:28:38.010Z,100.00
2023-04-16T04:31:06.481Z,100.00
2023-04-16T04:33:34.560Z,100.00
2023-04-16T04:36:03.429Z,100.00
2023-04-16T04:38:33.980Z,100.00
2023-04-16T04:41:06.517Z,100.00
2023-04-16T04:43:36.847Z,100.00
2023-04-16T04:46:05.456Z,100.00
2023-04-16T04:48:33.669Z,100.00
2023-04-16T04:51:04.847Z,100.00
2023-04-16T04:53:34.494Z,100.00
2023-04-16T04:56:11.743Z,100.00
2023-04-16T04:58:42.140Z,100.00
2023-04-16T05:01:09.596Z,100.00
2023-04-16T05:03:37.198Z,100.00
2023-04-16T05:06:05.605Z,100.00
2023-04-16T05:08:33.979Z,100.00
2023-04-16T05:11:04.680Z,100.00
2023-04-16T05:13:31.598Z,100.00
2023-04-16T05:16:00.581Z,100.00
2023-04-16T05:18:27.957Z,100.00
2023-04-16T05:20:58.019Z,100.00
2023-04-16T05:23:25.861Z,100.00
2023-04-16T05:25:54.782Z,100.00
2023-04-16T05:28:21.818Z,100.00
2023-04-16T05:30:49.959Z,100.00
2023-04-16T05:33:19.284Z,100.00
2023-04-16T05:35:47.260Z,100.00
2023-04-16T05:38:16.592Z,100.00
2023-04-16T05:40:47.306Z,100.00
2023-04-16T05:43:16.150Z,100.00
2023-04-16T05:45:44.132Z,100.00
2023-04-16T05:48:13.015Z,100.00
2023-04-16T05:50:41.772Z,100.00
2023-04-16T05:53:09.642Z,100.00
2023-04-16T05:55:37.551Z,100.00
2023-04-16T05:58:07.263Z,100.00
2023-04-16T06:00:36.301Z,100.00
2023-04-16T06:03:05.504Z,100.00
2023-04-16T06:05:36.175Z,100.00
2023-04-16T06:08:04.551Z,100.00
2023-04-16T06:10:32.744Z,100.00
2023-04-16T06:13:05.409Z,100.00
2023-04-16T06:15:33.624Z,100.00
2023-04-16T06:18:03.568Z,100.00
2023-04-16T06:20:32.469Z,100.00
2023-04-16T06:23:02.596Z,100.00
2023-04-16T06:25:31.653Z,100.00
2023-04-16T06:27:59.596Z,100.00
2023-04-16T06:30:27.821Z,100.00
2023-04-16T06:32:56.016Z,100.00
2023-04-16T06:35:25.010Z,100.00
2023-04-16T06:37:53.932Z,99.01
2023-04-16T06:40:22.095Z,98.49
2023-04-16T06:42:50.623Z,97.92
2023-04-16T06:45:20.220Z,96.48
2023-04-16T06:47:48.707Z,95.17
2023-04-16T06:50:16.849Z,93.47
2023-04-16T06:52:46.277Z,90.81
2023-04-16T06:55:13.436Z,90.57
2023-04-16T06:57:42.467Z,88.00
2023-04-16T07:00:12.588Z,87.90
2023-04-16T07:02:40.003Z,87.81
2023-04-16T07:05:09.368Z,87.64
2023-04-16T07:07:38.816Z,87.16
2023-04-16T07:10:07.830Z,86.24
2023-04-16T07:12:36.220Z,85.72
2023-04-16T07:15:03.722Z,85.37
2023-04-16T07:17:32.617Z,85.72
2023-04-16T07:20:04.680Z,86.36
2023-04-16T07:22:34.286Z,85.89
2023-04-16T07:25:02.581Z,85.90
2023-04-16T07:27:33.025Z,86.20
2023-04-16T07:30:02.410Z,85.36
2023-04-16T07:32:33.595Z,85.45
2023-04-16T07:35:02.573Z,86.10
2023-04-16T07:37:34.861Z,85.42
2023-04-16T07:40:03.288Z,84.71
2023-04-16T07:42:31.389Z,82.31
2023-04-16T07:45:00.848Z,82.57
2023-04-16T07:47:30.180Z,81.97
2023-04-16T07:49:59.497Z,81.64
2023-04-16T07:52:28.376Z,81.27
2023-04-16T07:54:55.795Z,80.50
2023-04-16T07:57:25.057Z,78.80
2023-04-16T07:59:53.399Z,79.26
2023-04-16T08:02:25.287Z,79.21
2023-04-16T08:04:54.597Z,78.21
2023-04-16T08:07:22.551Z,72.33
2023-04-16T08:09:54.423Z,73.19
2023-04-16T08:12:23.089Z,72.24
2023-04-16T08:14:52.921Z,70.59
2023-04-16T08:17:21.170Z,71.57
2023-04-16T08:19:49.907Z,71.34
2023-04-16T08:22:18.120Z,70.06
2023-04-16T08:24:48.093Z,69.07
2023-04-16T08:27:19.762Z,70.25
2023-04-16T08:29:50.582Z,70.32
2023-04-16T08:35:02.172Z,70.03
2023-04-16T08:37:30.729Z,69.80
2023-04-16T08:40:00.393Z,70.81
2023-04-16T08:42:55.621Z,68.90
2023-04-16T08:45:30.032Z,68.90
2023-04-16T08:48:01.155Z,67.67
2023-04-16T08:50:31.979Z,68.28
2023-04-16T08:53:06.720Z,68.14
2023-04-16T08:55:41.454Z,68.06
2023-04-16T08:58:24.100Z,69.03
2023-04-16T09:00:54.491Z,69.38
2023-04-16T09:03:23.865Z,68.79
2023-04-16T09:06:01.136Z,69.00
2023-04-16T09:08:31.966Z,67.24
2023-04-16T09:11:00.680Z,66.75
2023-04-16T09:13:30.675Z,67.01
2023-04-16T09:16:01.391Z,67.07
2023-04-16T09:18:29.588Z,67.58
2023-04-16T09:20:58.607Z,67.53
2023-04-16T09:23:26.649Z,67.57
2023-04-16T09:25:58.880Z,67.63
2023-04-16T09:28:48.389Z,66.75
2023-04-16T09:31:22.252Z,67.46
2023-04-16T09:34:08.938Z,67.46
2023-04-16T09:36:38.156Z,67.58
2023-04-16T09:39:06.626Z,68.53
2023-04-16T09:41:40.696Z,68.96
2023-04-16T09:44:08.966Z,69.13
2023-04-16T09:46:45.264Z,69.44
2023-04-16T09:49:22.921Z,69.65
2023-04-16T09:51:53.539Z,68.79
2023-04-16T09:54:21.861Z,68.95
2023-04-16T09:56:50.023Z,68.83
2023-04-16T09:59:20.057Z,68.84
2023-04-16T10:01:47.505Z,69.31
2023-04-16T10:04:18.184Z,69.50
2023-04-16T10:07:04.790Z,69.90
2023-04-16T10:09:37.982Z,70.18
2023-04-16T10:12:09.266Z,70.97
2023-04-16T10:14:40.323Z,71.59
2023-04-16T10:17:11.889Z,73.16
2023-04-16T10:19:39.750Z,73.08
2023-04-16T10:22:07.303Z,73.96
2023-04-16T10:24:38.170Z,73.74
2023-04-16T10:27:05.895Z,73.84
2023-04-16T10:29:35.007Z,73.90
2023-04-16T10:32:04.205Z,73.33
2023-04-16T10:34:32.488Z,72.46
2023-04-16T10:36:59.894Z,72.10
2023-04-16T10:39:30.039Z,71.95
2023-04-16T10:42:18.898Z,72.09
2023-04-16T10:44:47.486Z,72.15
2023-04-16T10:47:14.796Z,71.60
2023-04-16T10:49:44.196Z,72.10
2023-04-16T10:52:18.338Z,72.56
2023-04-16T10:54:49.190Z,73.03
2023-04-16T10:57:18.802Z,74.21
2023-04-16T10:59:49.828Z,74.13
2023-04-16T11:02:18.776Z,74.30
2023-04-16T11:04:50.354Z,75.42
2023-04-16T11:07:34.510Z,75.62
2023-04-16T11:10:07.737Z,75.80
2023-04-16T11:12:42.458Z,76.17
2023-04-16T11:15:31.556Z,76.36
2023-04-16T11:18:00.597Z,76.82
2023-04-16T11:20:28.920Z,77.58
2023-04-16T11:22:57.994Z,78.27
2023-04-16T11:25:25.864Z,79.13
2023-04-16T11:27:55.432Z,79.68
2023-04-16T11:30:34.159Z,80.10
2023-04-16T11:33:14.666Z,81.07
2023-04-16T11:35:44.187Z,82.24
2023-04-16T11:38:11.248Z,82.82
2023-04-16T11:40:40.064Z,82.93
2023-04-16T11:43:16.642Z,83.54
2023-04-16T11:46:07.469Z,83.70
2023-04-16T11:48:49.848Z,84.67
2023-04-16T11:51:18.466Z,85.49
2023-04-16T11:53:51.077Z,85.20
2023-04-16T11:56:29.549Z,84.97
2023-04-16T11:59:12.533Z,84.82
2023-04-16T12:01:43.463Z,84.64
2023-04-16T12:04:13.920Z,84.61
2023-04-16T12:06:41.744Z,85.01
2023-04-16T12:09:28.286Z,84.76
2023-04-16T12:11:57.262Z,85.14
2023-04-16T12:14:25.214Z,85.15
2023-04-16T12:16:52.959Z,85.08
2023-04-16T12:19:21.306Z,84.58
2023-04-16T12:21:50.860Z,84.75
2023-04-16T12:24:24.605Z,85.05
2023-04-16T12:26:56.319Z,84.81
2023-04-16T12:29:28.683Z,84.03
2023-04-16T12:31:56.045Z,83.88
2023-04-16T12:34:25.569Z,83.81
2023-04-16T12:37:10.892Z,83.62
2023-04-16T12:39:38.584Z,83.84
2023-04-16T12:42:10.519Z,83.89
2023-04-16T12:44:38.321Z,83.99
2023-04-16T12:47:05.903Z,83.85
2023-04-16T12:49:32.897Z,83.94
2023-04-16T12:52:01.150Z,83.72
2023-04-16T12:54:32.038Z,83.71
2023-04-16T12:56:58.912Z,83.54
2023-04-16T12:59:26.713Z,83.69
2023-04-16T13:01:54.999Z,83.91
2023-04-16T13:04:25.479Z,83.88
2023-04-16T13:06:53.898Z,84.00
2023-04-16T13:09:21.039Z,83.89
2023-04-16T13:11:49.091Z,83.94
2023-04-16T13:14:16.631Z,83.92
2023-04-16T13:16:43.791Z,84.22
2023-04-16T13:19:11.645Z,83.88
2023-04-16T13:21:39.431Z,84.04
2023-04-16T13:24:06.887Z,84.08
2023-04-16T13:26:34.147Z,83.62
2023-04-16T13:29:01.858Z,83.92
2023-04-16T13:31:29.000Z,84.12
2023-04-16T13:33:57.078Z,84.32
2023-04-16T13:36:26.334Z,84.64
2023-04-16T13:38:55.204Z,85.00
2023-04-16T13:41:23.683Z,85.41
2023-04-16T13:43:51.552Z,86.20
2023-04-16T13:46:19.668Z,86.24
2023-04-16T13:48:47.543Z,86.60
2023-04-16T13:51:16.455Z,86.95
2023-04-16T13:53:43.986Z,87.05
2023-04-16T13:56:11.999Z,86.37
2023-04-16T13:58:39.872Z,85.46
2023-04-16T14:01:07.615Z,84.76
2023-04-16T14:03:37.951Z,84.32
2023-04-16T14:06:05.886Z,84.07
2023-04-16T14:08:32.881Z,84.23
2023-04-16T14:10:59.954Z,84.71
2023-04-16T14:13:27.492Z,85.08
2023-04-16T14:15:56.105Z,85.29
2023-04-16T14:18:23.249Z,85.42
2023-04-16T14:20:50.491Z,85.79
2023-04-16T14:23:17.700Z,86.19
2023-04-16T14:25:45.587Z,86.37
2023-04-16T14:28:15.536Z,86.22
2023-04-16T14:30:42.753Z,86.46
2023-04-16T14:33:10.114Z,87.11
2023-04-16T14:35:37.328Z,87.17
2023-04-16T14:38:04.886Z,87.22
2023-04-16T14:40:31.873Z,87.84
2023-04-16T14:42:59.181Z,87.54
2023-04-16T14:45:29.635Z,87.66
2023-04-16T14:48:03.513Z,88.01
2023-04-16T14:50:31.431Z,88.55
2023-04-16T14:52:58.499Z,88.43
2023-04-16T14:55:26.736Z,89.23
2023-04-16T14:57:54.320Z,89.27
2023-04-16T15:00:21.916Z,89.65
2023-04-16T15:02:49.309Z,89.58
2023-04-16T15:05:16.471Z,89.59
2023-04-16T15:07:44.560Z,89.67
2023-04-16T15:10:12.849Z,89.78
2023-04-16T15:12:40.312Z,90.19
2023-04-16T15:15:09.145Z,89.86
2023-04-16T15:17:37.016Z,90.28
2023-04-16T15:20:08.714Z,90.50
2023-04-16T15:22:36.456Z,90.32
2023-04-16T15:25:04.139Z,90.75
2023-04-16T15:27:32.511Z,90.46
2023-04-16T15:29:59.915Z,90.34
2023-04-16T15:32:28.226Z,90.55
2023-04-16T15:34:55.848Z,90.27
2023-04-16T15:37:24.299Z,90.62
2023-04-16T15:39:52.214Z,90.67
2023-04-16T15:42:19.481Z,91.47
2023-04-16T15:44:46.629Z,91.84
2023-04-16T15:47:13.734Z,91.82
2023-04-16T15:49:41.234Z,91.58
2023-04-16T15:52:09.000Z,92.53
2023-04-16T15:54:36.246Z,92.57
2023-04-16T15:57:04.044Z,92.17
2023-04-16T15:59:31.756Z,92.07
2023-04-16T16:01:59.143Z,92.58
2023-04-16T16:04:26.937Z,92.91
2023-04-16T16:06:54.781Z,92.99
2023-04-16T16:09:26.564Z,92.97
2023-04-16T16:11:56.378Z,92.79
2023-04-16T16:14:24.010Z,92.90
2023-04-16T16:16:51.527Z,92.94
2023-04-16T16:19:18.773Z,92.47
2023-04-16T16:21:45.985Z,93.32
2023-04-16T16:24:14.319Z,92.84
2023-04-16T16:26:42.175Z,93.44
2023-04-16T16:29:10.333Z,94.19
2023-04-16T16:31:38.262Z,93.56
2023-04-16T16:34:05.762Z,94.19
2023-04-16T16:36:36.802Z,93.85
2023-04-16T16:39:05.104Z,93.96
2023-04-16T16:41:32.796Z,94.29
2023-04-16T16:44:00.462Z,94.09
2023-04-16T16:46:27.632Z,94.85
2023-04-16T16:48:55.042Z,94.68
2023-04-16T16:51:22.372Z,94.81
2023-04-16T16:53:49.528Z,94.93
2023-04-16T16:56:16.856Z,94.91
2023-04-16T16:58:44.298Z,94.88
2023-04-16T17:01:12.007Z,95.06
2023-04-16T17:03:39.190Z,95.32
2023-04-16T17:06:06.968Z,95.92
2023-04-16T17:08:33.934Z,95.26
2023-04-16T17:11:04.479Z,96.22
2023-04-16T17:13:33.057Z,95.76
2023-04-16T17:16:00.157Z,96.33
2023-04-16T17:18:28.862Z,96.12
2023-04-16T17:20:55.806Z,96.29
2023-04-16T17:23:22.969Z,96.47
2023-04-16T17:25:50.038Z,96.67
2023-04-16T17:28:17.578Z,96.27
2023-04-16T17:30:45.455Z,96.52
2023-04-16T17:33:12.622Z,96.54
2023-04-16T17:35:40.909Z,96.23
2023-04-16T17:38:07.931Z,96.33
2023-04-16T17:40:34.716Z,96.48
2023-04-16T17:43:01.529Z,95.97
2023-04-16T17:45:28.594Z,96.39
2023-04-16T17:47:55.585Z,96.91
2023-04-16T17:50:22.736Z,96.26
2023-04-16T17:52:50.003Z,96.79
2023-04-16T17:55:17.295Z,96.99
2023-04-16T17:57:45.007Z,96.88
2023-04-16T18:00:12.753Z,96.96
2023-04-16T18:02:41.268Z,96.99
2023-04-16T18:05:08.831Z,97.16
2023-04-16T18:07:36.908Z,96.62
2023-04-16T18:10:04.586Z,97.29
2023-04-16T18:12:32.176Z,96.92
2023-04-16T18:14:59.658Z,96.88
2023-04-16T18:17:26.972Z,96.66
2023-04-16T18:19:54.283Z,96.79
2023-04-16T18:22:21.818Z,96.71
2023-04-16T18:24:48.921Z,97.49
2023-04-16T18:27:16.767Z,97.61
2023-04-16T18:29:45.238Z,97.16
2023-04-16T18:32:12.674Z,96.87
2023-04-16T18:34:39.708Z,97.54
2023-04-16T18:37:06.927Z,96.96
2023-04-16T18:39:34.172Z,97.11
2023-04-16T18:42:02.062Z,97.30
2023-04-16T18:44:29.521Z,97.20
2023-04-16T18:46:57.074Z,97.90
2023-04-16T18:49:24.898Z,98.60
2023-04-16T18:51:52.240Z,98.31
2023-04-16T18:54:20.571Z,97.94
2023-04-16T18:56:50.471Z,97.48
2023-04-16T18:59:17.304Z,98.24
2023-04-16T19:01:44.494Z,98.51
2023-04-16T19:04:11.920Z,98.56
2023-04-16T19:06:39.328Z,98.11
2023-04-16T19:09:07.875Z,98.65
2023-04-16T19:11:35.852Z,98.37
2023-04-16T19:14:03.609Z,98.02
2023-04-16T19:16:30.923Z,97.97
2023-04-16T19:18:58.328Z,98.21
2023-04-16T19:21:26.047Z,98.02
2023-04-16T19:23:53.016Z,98.35
2023-04-16T19:26:20.290Z,98.69
2023-04-16T19:28:47.680Z,98.34
2023-04-16T19:31:14.899Z,98.36
2023-04-16T19:33:41.979Z,98.87
2023-04-16T19:36:09.205Z,98.60
2023-04-16T19:38:36.108Z,98.68
2023-04-16T19:41:03.231Z,98.22
2023-04-16T19:43:31.164Z,98.78
2023-04-16T19:45:58.243Z,98.11
2023-04-16T19:48:25.168Z,98.84
2023-04-16T19:50:52.423Z,98.27
2023-04-16T19:53:19.310Z,98.80
2023-04-16T19:55:46.360Z,98.28
2023-04-16T19:58:14.865Z,98.30
2023-04-16T20:00:42.528Z,98.38
2023-04-16T20:03:10.248Z,98.20
2023-04-16T20:05:37.357Z,98.61
2023-04-16T20:08:04.509Z,98.90
2023-04-16T20:10:31.723Z,98.97
2023-04-16T20:12:58.729Z,98.65
2023-04-16T20:15:26.000Z,98.72
2023-04-16T20:17:55.671Z,98.56
2023-04-16T20:20:23.852Z,98.66
2023-04-16T20:22:51.087Z,98.20
2023-04-16T20:25:21.802Z,98.47
2023-04-16T20:27:48.552Z,98.41
2023-04-16T20:30:15.703Z,98.42
2023-04-16T20:32:42.902Z,98.14
2023-04-16T20:35:13.288Z,98.40
2023-04-16T20:37:42.343Z,98.30
2023-04-16T20:40:11.025Z,98.39
2023-04-16T20:42:38.180Z,98.33
2023-04-16T20:45:05.806Z,98.43
2023-04-16T20:47:35.110Z,98.11
2023-04-16T20:50:03.108Z,98.50
2023-04-16T20:52:30.371Z,98.47
2023-04-16T20:54:58.199Z,98.10
2023-04-16T20:57:25.910Z,98.16
2023-04-16T20:59:53.087Z,97.64
2023-04-16T21:02:20.848Z,98.12
2023-04-16T21:04:48.349Z,98.42
2023-04-16T21:07:15.849Z,98.21
2023-04-16T21:09:42.591Z,98.79
2023-04-16T21:12:09.786Z,98.64
2023-04-16T21:14:36.709Z,98.16
2023-04-16T21:17:03.888Z,98.30
2023-04-16T21:19:31.140Z,98.57
2023-04-16T21:21:58.271Z,98.69
2023-04-16T21:24:25.440Z,98.44
2023-04-16T21:26:52.763Z,100.00
2023-04-16T21:29:19.561Z,99.34
2023-04-16T21:31:46.846Z,99.29
2023-04-16T21:34:14.028Z,99.01
2023-04-16T21:36:41.189Z,99.56
2023-04-16T21:39:08.326Z,100.00
2023-04-16T21:41:35.140Z,100.00
2023-04-16T21:44:02.148Z,100.00
2023-04-16T21:46:29.457Z,100.00
2023-04-16T21:48:56.739Z,100.00
2023-04-16T21:51:29.521Z,100.00
2023-04-16T21:53:57.277Z,100.00
2023-04-16T21:56:27.819Z,100.00
2023-04-16T21:58:54.820Z,100.00
2023-04-16T22:01:22.225Z,100.00
2023-04-16T22:03:50.943Z,100.00
2023-04-16T22:06:18.740Z,100.00
2023-04-16T22:08:46.410Z,100.00
2023-04-16T22:11:13.386Z,100.00
2023-04-16T22:13:42.514Z,100.00
2023-04-16T22:16:11.594Z,100.00
2023-04-16T22:18:39.901Z,100.00
2023-04-16T22:21:07.120Z,100.00
2023-04-16T22:23:33.977Z,100.00
2023-04-16T22:26:02.964Z,100.00
2023-04-16T22:28:30.178Z,100.00
2023-04-16T22:30:57.651Z,100.00
2023-04-16T22:33:24.768Z,100.00
2023-04-16T22:35:53.735Z,100.00
2023-04-16T22:38:21.387Z,100.00
2023-04-16T22:40:49.162Z,100.00
2023-04-16T22:43:17.907Z,100.00
2023-04-16T22:45:46.459Z,100.00
2023-04-16T22:48:13.501Z,100.00
2023-04-16T22:50:46.198Z,100.00
2023-04-16T22:53:12.882Z,100.00
2023-04-16T22:55:40.009Z,100.00
2023-04-16T22:58:07.195Z,100.00
2023-04-16T23:00:35.501Z,100.00
2023-04-16T23:03:02.889Z,100.00
2023-04-16T23:05:30.024Z,100.00
2023-04-16T23:07:57.123Z,100.00
2023-04-16T23:10:24.334Z,100.00
2023-04-16T23:12:51.387Z,100.00
2023-04-16T23:15:18.847Z,100.00
2023-04-16T23:17:47.672Z,100.00
2023-04-16T23:20:14.918Z,100.00
2023-04-16T23:22:42.118Z,100.00
2023-04-16T23:25:10.079Z,100.00
2023-04-16T23:27:37.668Z,100.00
2023-04-16T23:30:05.572Z,100.00
2023-04-16T23:32:34.471Z,100.00
2023-04-16T23:35:01.726Z,100.00
2023-04-16T23:37:28.767Z,100.00
2023-04-16T23:39:55.965Z,100.00
2023-04-16T23:42:22.779Z,100.00
2023-04-16T23:44:49.812Z,100.00
2023-04-16T23:47:17.058Z,100.00
2023-04-16T23:49:43.928Z,100.00
2023-04-16T23:52:10.966Z,100.00
2023-04-16T23:54:38.087Z,100.00
2023-04-16T23:57:05.329Z,100.00
2023-04-16T23:59:32.387Z,100.00
